Time;durP1;ratioP1;P1;durP2;ratioP2;P2;SDS_P1;SDS_P2;PMS_P1;PMS_P2;Temp;Humidity;BMP_temperature;BMP_pressure;BME280_temperature;BME280_humidity;BME280_pressure;Samples;Min_cycle;Max_cycle;Signal;HPM_P1;HPM_P2
2023/11/07 00:00:51;;;;;;;6.58;1.85;;;;;;;10.18;70.12;99929.11;1681073;85;21051;-66
2023/11/07 00:03:20;;;;;;;7.62;1.87;;;;;;;10.20;70.14;99937.98;1680283;85;21059;-65
2023/11/07 00:05:49;;;;;;;5.50;2.15;;;;;;;10.22;70.12;99943.25;1681005;85;21531;-66
2023/11/07 00:08:19;;;;;;;4.33;2.08;;;;;;;10.22;70.05;99942.73;1680577;85;21154;-67
2023/11/07 00:10:49;;;;;;;6.53;1.70;;;;;;;10.23;70.15;99947.68;1680364;85;21133;-66
2023/11/07 00:13:17;;;;;;;4.28;1.60;;;;;;;10.23;70.25;99950.42;1681077;85;21103;-66
2023/11/07 00:15:46;;;;;;;4.85;1.50;;;;;;;10.23;70.35;99951.27;1681196;85;21051;-65
2023/11/07 00:18:15;;;;;;;2.95;1.55;;;;;;;10.24;70.29;99952.95;1681195;85;21039;-66
2023/11/07 00:20:44;;;;;;;6.90;1.47;;;;;;;10.23;70.42;99954.53;1680316;85;21102;-66
2023/11/07 00:23:13;;;;;;;4.90;1.20;;;;;;;10.21;70.46;99957.47;1680967;85;21534;-65
2023/11/07 00:25:42;;;;;;;3.52;1.20;;;;;;;10.20;70.65;99957.16;1681231;85;21491;-69
2023/11/07 00:28:12;;;;;;;2.90;1.57;;;;;;;10.18;70.75;99955.11;1681123;85;21117;-67
2023/11/07 00:30:41;;;;;;;2.35;1.20;;;;;;;10.17;70.81;99958.91;1681362;84;21138;-66
2023/11/07 00:33:10;;;;;;;1.57;1.00;;;;;;;10.15;70.91;99960.47;1681120;85;21387;-66
2023/11/07 00:35:45;;;;;;;10.45;1.20;;;;;;;10.12;71.08;99964.99;1680490;85;21091;-67
2023/11/07 00:38:12;;;;;;;2.30;1.40;;;;;;;10.12;71.09;99962.78;1680943;85;21098;-66
2023/11/07 00:40:42;;;;;;;2.25;1.50;;;;;;;10.10;71.25;99960.77;1681140;85;21111;-66
2023/11/07 00:43:12;;;;;;;2.87;1.47;;;;;;;10.08;71.50;99962.87;1681113;85;21459;-67
2023/11/07 00:45:41;;;;;;;2.77;1.30;;;;;;;10.08;71.80;99964.23;1681317;84;21124;-66
2023/11/07 00:48:11;;;;;;;3.98;1.65;;;;;;;10.09;71.92;99964.56;1676188;85;21134;-66
2023/11/07 00:50:40;;;;;;;3.92;1.82;;;;;;;10.08;72.07;99956.03;1674505;86;21062;-67
2023/11/07 00:53:09;;;;;;;3.80;2.17;;;;;;;10.07;72.31;99962.03;1674515;86;21095;-66
2023/11/07 00:55:39;;;;;;;6.03;1.92;;;;;;;10.06;72.31;99960.34;1674569;86;21545;-65
2023/11/07 00:58:08;;;;;;;4.72;2.25;;;;;;;10.03;72.42;99969.48;1674539;86;21067;-66
2023/11/07 01:00:37;;;;;;;11.03;2.90;;;;;;;10.01;72.47;99962.84;1674580;86;21515;-65
2023/11/07 01:03:06;;;;;;;10.05;3.35;;;;;;;10.02;72.60;99971.91;1674641;86;21475;-65
2023/11/07 01:05:36;;;;;;;7.15;2.60;;;;;;;10.04;72.69;99976.65;1674783;84;21059;-65
2023/11/07 01:08:05;;;;;;;6.37;2.30;;;;;;;10.06;72.81;99977.29;1674486;86;21059;-66
2023/11/07 01:10:35;;;;;;;4.15;2.22;;;;;;;10.05;72.87;99975.59;1674714;86;21051;-66
2023/11/07 01:13:04;;;;;;;5.00;2.55;;;;;;;10.04;72.75;99977.49;1674502;86;21362;-66
2023/11/07 01:15:33;;;;;;;8.65;2.80;;;;;;;10.04;72.68;99983.48;1674722;86;21047;-65
2023/11/07 01:18:02;;;;;;;6.55;2.70;;;;;;;10.04;72.79;99986.23;1674551;86;21122;-67
2023/11/07 01:20:35;;;;;;;9.95;2.55;;;;;;;10.04;72.78;99984.86;1674670;84;21087;-65
2023/11/07 01:23:04;;;;;;;4.42;2.37;;;;;;;10.04;72.86;99991.17;1674708;86;21076;-67
2023/11/07 01:25:33;;;;;;;5.05;2.40;;;;;;;10.05;72.88;99985.17;1674910;86;21083;-65
2023/11/07 01:28:02;;;;;;;5.15;2.60;;;;;;;10.04;73.02;99991.17;1674703;86;21479;-66
2023/11/07 01:30:31;;;;;;;4.60;2.45;;;;;;;10.04;72.95;99996.66;1674545;86;21123;-65
2023/11/07 01:33:00;;;;;;;8.08;2.60;;;;;;;10.02;73.00;99995.17;1674496;86;21470;-66
2023/11/07 01:35:29;;;;;;;3.90;2.20;;;;;;;10.03;73.02;100002.33;1674575;86;21490;-65
2023/11/07 01:37:58;;;;;;;8.88;2.52;;;;;;;10.01;73.03;99998.43;1674736;86;21071;-65
2023/11/07 01:40:28;;;;;;;8.58;2.25;;;;;;;10.00;73.12;100005.48;1674720;86;21075;-65
2023/11/07 01:42:58;;;;;;;5.33;2.20;;;;;;;9.99;73.15;100005.16;1674554;86;21090;-66
2023/11/07 01:45:27;;;;;;;4.30;2.60;;;;;;;9.98;73.26;100008.94;1674459;86;21134;-66
2023/11/07 01:47:55;;;;;;;5.55;2.45;;;;;;;9.98;73.38;100002.09;1678006;85;21518;-66
2023/11/07 01:50:25;;;;;;;7.53;2.67;;;;;;;9.98;73.40;100006.20;1681056;85;21490;-65
2023/11/07 01:52:55;;;;;;;8.58;2.80;;;;;;;9.97;73.48;100012.20;1681104;85;21119;-66
2023/11/07 01:55:24;;;;;;;6.50;2.37;;;;;;;9.95;73.39;100012.08;1681123;85;21541;-66
2023/11/07 01:57:53;;;;;;;7.15;2.58;;;;;;;9.93;73.48;100019.13;1681266;85;21035;-66
2023/11/07 02:00:22;;;;;;;4.75;2.37;;;;;;;9.93;73.45;100022.39;1681190;85;21058;-65
2023/11/07 02:02:51;;;;;;;5.55;2.60;;;;;;;9.92;73.47;100018.81;1681273;85;21123;-65
2023/11/07 02:05:19;;;;;;;9.15;2.83;;;;;;;9.92;73.55;100022.06;1681160;85;21087;-65
2023/11/07 02:07:49;;;;;;;7.87;2.50;;;;;;;9.90;73.51;100030.48;1681254;85;21076;-65
2023/11/07 02:10:20;;;;;;;5.33;2.12;;;;;;;9.90;73.55;100029.11;1681149;85;21525;-65
2023/11/07 02:12:53;;;;;;;5.25;3.00;;;;;;;9.91;73.55;100032.69;1681183;84;21039;-66
2023/11/07 02:15:27;;;;;;;9.08;3.30;;;;;;;9.90;73.54;100036.48;1681020;85;21078;-65
2023/11/07 02:17:56;;;;;;;6.42;2.42;;;;;;;9.89;73.65;100038.37;1681105;85;21051;-65
2023/11/07 02:20:26;;;;;;;4.50;2.00;;;;;;;9.87;73.57;100040.98;1681344;85;21067;-65
2023/11/07 02:23:00;;;;;;;7.60;2.80;;;;;;;9.84;73.65;100048.55;1681311;85;21079;-66
2023/11/07 02:25:30;;;;;;;9.28;3.58;;;;;;;9.84;73.72;100047.19;1679487;85;21064;-67
2023/11/07 02:28:01;;;;;;;9.83;3.75;;;;;;;9.84;73.75;100047.19;1681251;85;21084;-66
2023/11/07 02:30:30;;;;;;;9.95;3.58;;;;;;;9.82;73.86;100050.64;1681220;85;21048;-66
2023/11/07 02:33:04;;;;;;;8.20;3.00;;;;;;;9.81;73.97;100053.06;1681305;85;21015;-65
2023/11/07 02:35:33;;;;;;;4.28;2.20;;;;;;;9.80;74.09;100051.38;1680907;85;21549;-66
2023/11/07 02:38:02;;;;;;;5.53;2.22;;;;;;;9.78;74.12;100060.30;1681200;85;21169;-65
2023/11/07 02:40:32;;;;;;;6.67;2.27;;;;;;;9.77;74.28;100065.98;1681110;85;21086;-66
2023/11/07 02:43:01;;;;;;;6.62;2.30;;;;;;;9.76;74.51;100066.50;1681094;85;21058;-67
2023/11/07 02:45:31;;;;;;;6.55;2.20;;;;;;;9.76;74.56;100065.66;1681287;85;21067;-66
2023/11/07 02:47:59;;;;;;;5.62;2.30;;;;;;;9.74;74.63;100065.82;1678064;85;21115;-65
2023/11/07 02:50:29;;;;;;;7.62;2.77;;;;;;;9.72;74.75;100076.12;1674530;86;21075;-66
2023/11/07 02:52:59;;;;;;;6.80;2.90;;;;;;;9.71;74.79;100077.16;1674547;86;21019;-65
2023/11/07 02:55:28;;;;;;;6.35;2.30;;;;;;;9.69;74.95;100077.05;1674473;86;21083;-65
2023/11/07 02:57:57;;;;;;;6.33;2.70;;;;;;;9.68;75.04;100083.56;1674527;86;21020;-67
2023/11/07 03:00:26;;;;;;;6.35;2.60;;;;;;;9.67;75.12;100084.08;1674514;86;21084;-66
2023/11/07 03:02:56;;;;;;;8.58;2.85;;;;;;;9.66;75.09;100089.23;1674532;86;21052;-67
2023/11/07 03:05:27;;;;;;;7.17;2.52;;;;;;;9.67;75.21;100094.18;1674480;86;21553;-66
2023/11/07 03:07:57;;;;;;;6.35;2.70;;;;;;;9.68;75.24;100095.34;1674667;86;21024;-66
2023/11/07 03:10:26;;;;;;;5.37;2.20;;;;;;;9.69;75.26;100099.77;1674510;86;21099;-66
2023/11/07 03:12:55;;;;;;;5.05;2.65;;;;;;;9.67;75.22;100107.86;1674670;86;21094;-66
2023/11/07 03:15:24;;;;;;;4.25;2.50;;;;;;;9.64;75.31;100103.62;1674710;84;21131;-68
2023/11/07 03:17:52;;;;;;;6.37;2.37;;;;;;;9.64;75.37;100113.72;1674525;86;21063;-66
2023/11/07 03:20:22;;;;;;;7.65;2.70;;;;;;;9.61;75.45;100112.75;1674538;84;21573;-66
2023/11/07 03:22:50;;;;;;;5.47;2.52;;;;;;;9.59;75.49;100110.74;1674751;86;21095;-66
2023/11/07 03:25:20;;;;;;;6.00;2.60;;;;;;;9.57;75.71;100116.41;1674624;86;21051;-66
2023/11/07 03:27:50;;;;;;;6.85;2.52;;;;;;;9.58;75.78;100129.56;1677864;85;21063;-66
2023/11/07 03:30:20;;;;;;;6.47;3.45;;;;;;;9.57;75.87;100132.82;1674708;86;21020;-65
2023/11/07 03:32:49;;;;;;;6.12;3.25;;;;;;;9.54;75.98;100134.58;1674607;86;21110;-66
2023/11/07 03:35:18;;;;;;;4.60;2.45;;;;;;;9.52;76.04;100137.52;1674713;86;21043;-65
2023/11/07 03:37:49;;;;;;;9.48;2.58;;;;;;;9.51;76.10;100137.71;1674737;86;21019;-66
2023/11/07 03:40:18;;;;;;;5.62;2.30;;;;;;;9.49;76.13;100148.00;1674506;86;21134;-67
2023/11/07 03:42:47;;;;;;;4.58;2.00;;;;;;;9.44;76.26;100143.64;1674705;86;21113;-66
2023/11/07 03:45:16;;;;;;;5.85;1.85;;;;;;;9.44;76.36;100143.64;1674584;86;21365;-66
2023/11/07 03:47:45;;;;;;;4.85;1.90;;;;;;;9.44;76.42;100149.12;1676354;85;21548;-65
2023/11/07 03:50:16;;;;;;;6.47;3.12;;;;;;;9.44;76.47;100145.02;1685610;85;21066;-66
2023/11/07 03:52:45;;;;;;;6.20;2.60;;;;;;;9.43;76.55;100144.17;1685449;85;21557;-66
2023/11/07 03:55:14;;;;;;;5.97;2.50;;;;;;;9.41;76.54;100152.24;1685423;85;21162;-66
2023/11/07 03:57:44;;;;;;;5.90;2.33;;;;;;;9.38;76.71;100155.37;1685691;84;21084;-66
2023/11/07 04:00:13;;;;;;;7.03;2.50;;;;;;;9.38;76.77;100158.10;1685833;85;21511;-67
2023/11/07 04:02:42;;;;;;;4.03;2.20;;;;;;;9.36;76.79;100162.40;1685666;85;21463;-66
2023/11/07 04:05:11;;;;;;;3.60;2.22;;;;;;;9.35;76.83;100163.45;1685498;85;21082;-66
2023/11/07 04:07:42;;;;;;;4.22;2.30;;;;;;;9.35;76.91;100158.49;1685140;85;21078;-67
2023/11/07 04:10:11;;;;;;;5.70;2.30;;;;;;;9.34;76.99;100171.32;1685349;85;21114;-66
2023/11/07 04:12:40;;;;;;;4.47;1.90;;;;;;;9.35;77.13;100174.91;1684400;84;21475;-66
2023/11/07 04:15:12;;;;;;;10.18;2.60;;;;;;;9.34;77.15;100168.59;1685486;85;21186;-66
2023/11/07 04:17:41;;;;;;;3.00;1.72;;;;;;;9.34;77.16;100177.31;1684701;84;21027;-66
2023/11/07 04:20:12;;;;;;;6.28;2.08;;;;;;;9.30;77.23;100176.85;1685435;85;21102;-66
2023/11/07 04:22:42;;;;;;;5.15;2.65;;;;;;;9.31;77.31;100183.17;1685553;84;21509;-66
2023/11/07 04:25:12;;;;;;;4.30;2.02;;;;;;;9.30;77.27;100184.21;1685385;84;21071;-67
2023/11/07 04:27:44;;;;;;;4.20;2.30;;;;;;;9.28;77.32;100190.39;1685376;85;21066;-66
2023/11/07 04:30:13;;;;;;;6.22;2.80;;;;;;;9.26;77.50;100191.11;1685396;85;21059;-65
2023/11/07 04:32:43;;;;;;;6.47;2.55;;;;;;;9.23;77.55;100185.51;1685414;85;21075;-66
2023/11/07 04:35:12;;;;;;;6.28;2.92;;;;;;;9.24;77.61;100194.03;1685394;85;21503;-65
2023/11/07 04:37:42;;;;;;;6.37;2.72;;;;;;;9.23;77.72;100190.98;1685548;84;21123;-65
2023/11/07 04:40:11;;;;;;;7.55;2.37;;;;;;;9.21;77.80;100192.53;1685561;84;21035;-67
2023/11/07 04:42:41;;;;;;;4.55;2.15;;;;;;;9.18;77.90;100195.66;1685582;85;21070;-66
2023/11/07 04:45:11;;;;;;;3.70;2.00;;;;;;;9.17;77.96;100194.48;1685214;85;21198;-66
2023/11/07 04:47:39;;;;;;;4.45;1.65;;;;;;;9.14;78.02;100198.45;1685307;85;21063;-67
2023/11/07 04:50:12;;;;;;;5.03;1.82;;;;;;;9.11;78.11;100208.41;1680711;85;21066;-66
2023/11/07 04:52:40;;;;;;;3.37;1.77;;;;;;;9.08;78.27;100206.55;1680904;85;21086;-67
2023/11/07 04:55:11;;;;;;;3.72;1.70;;;;;;;9.07;78.49;100222.62;1680615;85;21119;-66
2023/11/07 04:57:41;;;;;;;6.47;2.00;;;;;;;9.04;78.61;100214.80;1681217;85;21091;-67
2023/11/07 05:00:12;;;;;;;6.37;2.00;;;;;;;9.00;78.81;100225.27;1680968;85;21537;-66
2023/11/07 05:02:42;;;;;;;5.33;2.40;;;;;;;8.98;79.00;100226.50;1681168;85;21118;-66
2023/11/07 05:05:12;;;;;;;6.67;2.30;;;;;;;8.96;79.14;100225.33;1681108;85;21118;-66
2023/11/07 05:07:41;;;;;;;7.87;2.77;;;;;;;8.93;79.25;100223.50;1661709;85;21071;-67
2023/11/07 05:10:11;;;;;;;6.03;3.00;;;;;;;8.90;79.44;100226.94;1681033;85;21075;-65
2023/11/07 05:12:40;;;;;;;6.35;2.42;;;;;;;8.88;79.56;100235.84;1680729;85;21074;-67
2023/11/07 05:15:10;;;;;;;5.35;2.80;;;;;;;8.87;79.73;100233.30;1680991;84;21076;-66
2023/11/07 05:17:39;;;;;;;6.42;2.52;;;;;;;8.87;79.81;100235.52;1681223;85;21076;-66
2023/11/07 05:20:13;;;;;;;7.33;3.37;;;;;;;8.88;79.93;100241.31;1681372;85;21122;-70
2023/11/07 05:22:43;;;;;;;5.87;3.00;;;;;;;8.88;80.01;100250.03;1680795;85;21099;-68
2023/11/07 05:25:12;;;;;;;8.85;3.08;;;;;;;8.88;80.01;100262.33;1680682;85;21192;-67
2023/11/07 05:27:41;;;;;;;7.47;3.58;;;;;;;8.88;80.15;100260.44;1681320;85;21059;-66
2023/11/07 05:30:13;;;;;;;7.10;3.37;;;;;;;8.88;80.26;100259.59;1681119;85;21098;-66
2023/11/07 05:32:42;;;;;;;8.90;2.85;;;;;;;8.90;80.36;100266.56;1662462;85;21059;-67
2023/11/07 05:35:10;;;;;;;9.45;3.20;;;;;;;8.92;80.43;100264.16;1681046;85;21559;-66
2023/11/07 05:37:40;;;;;;;7.85;2.90;;;;;;;8.93;80.41;100260.38;1680628;85;21523;-65
2023/11/07 05:40:13;;;;;;;8.05;2.85;;;;;;;8.94;80.42;100268.39;1680597;85;21083;-66
2023/11/07 05:42:40;;;;;;;6.15;3.27;;;;;;;8.95;80.42;100278.28;1681081;85;21524;-67
2023/11/07 05:45:12;;;;;;;5.85;3.17;;;;;;;8.96;80.44;100285.45;1680583;85;21067;-66
2023/11/07 05:47:42;;;;;;;7.05;2.50;;;;;;;8.97;80.42;100290.39;1681122;85;21106;-66
2023/11/07 05:50:11;;;;;;;5.83;2.40;;;;;;;8.98;80.41;100292.94;1674103;83;21063;-66
2023/11/07 05:52:40;;;;;;;11.12;4.40;;;;;;;9.01;80.51;100296.66;1674678;86;21471;-67
2023/11/07 05:55:10;;;;;;;6.30;2.77;;;;;;;9.04;80.47;100293.54;1674632;86;21063;-68
2023/11/07 05:57:39;;;;;;;4.10;2.08;;;;;;;9.07;80.39;100298.63;1674497;86;21044;-65
2023/11/07 06:00:10;;;;;;;6.37;2.60;;;;;;;9.10;80.34;100309.69;1674681;86;21121;-67
2023/11/07 06:02:42;;;;;;;8.13;2.47;;;;;;;9.12;80.33;100309.86;1674654;86;21095;-67
2023/11/07 06:05:11;;;;;;;5.62;2.50;;;;;;;9.16;80.24;100315.80;1674623;86;21059;-66
2023/11/07 06:07:40;;;;;;;6.03;2.55;;;;;;;9.17;79.95;100317.49;1674585;86;21094;-67
2023/11/07 06:10:09;;;;;;;4.35;2.17;;;;;;;9.17;79.95;100308.77;1674406;86;21565;-66
2023/11/07 06:12:38;;;;;;;5.83;2.50;;;;;;;9.19;79.90;100320.88;1674641;86;21052;-66
2023/11/07 06:15:07;;;;;;;6.17;2.30;;;;;;;9.20;79.87;100315.75;1674463;86;21122;-66
2023/11/07 06:17:36;;;;;;;7.58;3.15;;;;;;;9.24;79.74;100327.14;1674519;84;21059;-66
2023/11/07 06:20:08;;;;;;;7.17;3.60;;;;;;;9.26;79.74;100323.19;1674436;86;21480;-66
2023/11/07 06:22:37;;;;;;;7.28;2.70;;;;;;;9.29;79.63;100323.32;1674405;86;21107;-67
2023/11/07 06:25:09;;;;;;;5.78;3.12;;;;;;;9.32;79.55;100334.72;1674714;86;21036;-66
2023/11/07 06:27:38;;;;;;;8.30;2.42;;;;;;;9.34;79.52;100330.42;1674803;86;21024;-66
2023/11/07 06:30:10;;;;;;;6.42;2.67;;;;;;;9.36;79.55;100331.08;1674666;86;21072;-66
2023/11/07 06:32:38;;;;;;;6.87;2.98;;;;;;;9.39;79.44;100327.45;1674455;86;21504;-66
2023/11/07 06:35:08;;;;;;;6.45;2.33;;;;;;;9.43;79.37;100339.70;1674351;84;21067;-67
2023/11/07 06:37:37;;;;;;;6.92;2.92;;;;;;;9.46;79.18;100343.41;1674725;86;21452;-66
2023/11/07 06:40:18;;;;;;;7.95;3.15;;;;;;;9.49;79.18;100340.81;1674549;86;21483;-67
2023/11/07 06:42:42;;;;;;;6.42;2.65;;;;;;;9.52;79.09;100343.16;1674904;85;21528;-67
2023/11/07 06:45:12;;;;;;;9.25;3.10;;;;;;;9.54;79.04;100345.19;1674575;84;21110;-67
2023/11/07 06:47:45;;;;;;;6.15;2.55;;;;;;;9.58;78.97;100344.28;1674479;86;21055;-66
2023/11/07 06:50:16;;;;;;;5.20;2.60;;;;;;;9.58;78.79;100345.13;1676285;85;21106;-66
2023/11/07 06:52:50;;;;;;;6.28;2.77;;;;;;;9.61;78.65;100351.58;1676675;85;21096;-67
2023/11/07 06:55:24;;;;;;;5.97;2.85;;;;;;;9.63;78.59;100350.02;1676511;85;21072;-66
2023/11/07 06:57:52;;;;;;;6.17;2.60;;;;;;;9.66;78.54;100348.27;1676258;85;21443;-67
2023/11/07 07:00:24;;;;;;;5.03;2.30;;;;;;;9.67;78.35;100363.64;1676620;85;21039;-66
2023/11/07 07:02:58;;;;;;;6.28;2.22;;;;;;;9.70;78.30;100367.36;1676629;85;21094;-67
2023/11/07 07:05:23;;;;;;;8.03;2.50;;;;;;;9.72;78.21;100361.17;1676476;85;21063;-66
2023/11/07 07:07:52;;;;;;;9.63;3.77;;;;;;;9.75;78.10;100364.89;1676363;85;21126;-67
2023/11/07 07:10:21;;;;;;;6.03;2.42;;;;;;;9.78;77.95;100370.01;1676426;84;21011;-68
2023/11/07 07:12:51;;;;;;;4.72;2.50;;;;;;;9.81;77.80;100384.15;1676742;85;21024;-67
2023/11/07 07:15:20;;;;;;;10.18;6.80;;;;;;;9.84;77.69;100382.39;1676533;85;21027;-66
2023/11/07 07:17:49;;;;;;;5.12;2.30;;;;;;;9.88;77.78;100385.59;1676611;85;21091;-67
2023/11/07 07:20:18;;;;;;;6.00;2.40;;;;;;;9.94;77.58;100380.71;1676605;85;21055;-68
2023/11/07 07:22:47;;;;;;;6.53;2.70;;;;;;;10.00;77.45;100381.83;1676466;84;21494;-67
2023/11/07 07:25:20;;;;;;;6.62;2.75;;;;;;;10.07;77.64;100380.00;1676349;85;21075;-65
2023/11/07 07:27:48;;;;;;;5.12;2.27;;;;;;;10.31;77.75;100378.80;1676393;85;21047;-67
2023/11/07 07:30:20;;;;;;;4.22;2.25;;;;;;;10.78;76.90;100372.68;1676590;85;21072;-67
2023/11/07 07:32:50;;;;;;;4.87;2.33;;;;;;;11.28;75.43;100366.59;1676588;85;21063;-67
2023/11/07 07:35:21;;;;;;;4.42;2.27;;;;;;;11.84;73.37;100364.55;1676279;85;21540;-67
2023/11/07 07:37:51;;;;;;;4.03;2.22;;;;;;;12.36;71.11;100368.48;1676368;85;21478;-66
2023/11/07 07:40:29;;;;;;;6.12;2.80;;;;;;;12.85;69.59;100365.28;1676551;85;21556;-67
2023/11/07 07:43:06;;;;;;;7.95;2.95;;;;;;;13.31;67.38;100361.65;1676529;85;21100;-67
2023/11/07 07:45:30;;;;;;;7.33;2.40;;;;;;;13.76;65.71;100370.81;1676157;84;21067;-67
2023/11/07 07:48:03;;;;;;;7.28;2.77;;;;;;;14.13;63.24;100374.63;1676317;85;21526;-66
2023/11/07 07:50:41;;;;;;;8.25;3.00;;;;;;;14.34;62.01;100366.57;1679456;85;21576;-67
2023/11/07 07:53:08;;;;;;;4.90;2.25;;;;;;;14.55;61.50;100377.79;1680906;85;21122;-68
2023/11/07 07:55:42;;;;;;;6.28;3.20;;;;;;;14.78;59.46;100373.88;1681130;85;21545;-68
2023/11/07 07:58:09;;;;;;;7.75;2.70;;;;;;;14.86;58.46;100375.50;1680716;84;21059;-66
2023/11/07 08:00:40;;;;;;;6.62;2.87;;;;;;;14.90;57.93;100380.34;1680987;85;21098;-67
2023/11/07 08:03:11;;;;;;;7.58;2.80;;;;;;;14.94;57.95;100383.48;1681199;85;21170;-67
2023/11/07 08:05:42;;;;;;;5.92;2.80;;;;;;;14.99;57.60;100395.26;1681041;85;21487;-66
2023/11/07 08:08:12;;;;;;;9.83;3.42;;;;;;;14.97;56.46;100398.24;1680982;85;21126;-67
2023/11/07 08:10:41;;;;;;;5.58;2.50;;;;;;;14.85;57.35;100396.73;1680863;85;21090;-68
2023/11/07 08:13:10;;;;;;;6.87;2.65;;;;;;;14.79;56.83;100399.01;1680271;85;21514;-67
2023/11/07 08:15:40;;;;;;;6.62;2.50;;;;;;;14.67;57.25;100406.33;1681278;85;21471;-67
2023/11/07 08:18:10;;;;;;;6.55;2.77;;;;;;;14.57;57.56;100408.20;1681192;85;21166;-67
2023/11/07 08:20:40;;;;;;;5.40;2.65;;;;;;;14.51;57.64;100412.39;1681019;85;21687;-67
2023/11/07 08:23:10;;;;;;;9.23;2.72;;;;;;;14.43;57.85;100420.39;1680992;85;21523;-66
2023/11/07 08:25:39;;;;;;;5.35;2.80;;;;;;;14.33;58.15;100417.78;1680703;85;21467;-67
2023/11/07 08:28:10;;;;;;;5.12;2.60;;;;;;;14.23;58.73;100417.70;1680704;85;21760;-67
2023/11/07 08:30:43;;;;;;;6.28;2.67;;;;;;;14.18;58.55;100423.03;1681015;85;21039;-66
2023/11/07 08:33:10;;;;;;;5.72;2.00;;;;;;;14.05;58.61;100420.88;1681139;85;21106;-66
2023/11/07 08:35:39;;;;;;;6.37;2.35;;;;;;;13.85;58.98;100432.00;1681217;85;21118;-68
2023/11/07 08:38:09;;;;;;;5.33;2.47;;;;;;;13.71;59.70;100429.83;1679804;84;21174;-68
2023/11/07 08:40:38;;;;;;;10.10;3.35;;;;;;;13.60;59.80;100432.70;1680997;85;21090;-68
2023/11/07 08:43:07;;;;;;;6.90;1.98;;;;;;;13.55;60.18;100431.13;1681194;85;21083;-67
2023/11/07 08:45:36;;;;;;;3.27;1.85;;;;;;;13.50;60.28;100441.09;1680978;85;21063;-67
2023/11/07 08:48:06;;;;;;;9.08;2.10;;;;;;;13.42;60.27;100444.92;1680864;85;21046;-68
2023/11/07 08:50:37;;;;;;;3.45;1.92;;;;;;;13.31;60.71;100434.58;1680985;85;21090;-68
2023/11/07 08:53:06;;;;;;;5.60;2.47;;;;;;;13.28;61.30;100444.64;1680893;84;21086;-69
2023/11/07 08:55:38;;;;;;;5.17;1.85;;;;;;;13.28;61.51;100439.13;1681073;85;21474;-68
2023/11/07 08:58:07;;;;;;;7.25;2.00;;;;;;;13.28;61.51;100440.51;1681110;85;21039;-66
2023/11/07 09:00:36;;;;;;;5.10;1.70;;;;;;;13.27;61.28;100441.57;1681103;85;21511;-67
2023/11/07 09:03:08;;;;;;;6.58;2.70;;;;;;;13.27;61.08;100441.57;1681180;84;21082;-69
2023/11/07 09:05:38;;;;;;;5.87;2.00;;;;;;;13.24;61.03;100447.50;1681209;84;21479;-68
2023/11/07 09:08:09;;;;;;;5.12;1.80;;;;;;;13.25;61.24;100450.56;1673962;83;21084;-70
2023/11/07 09:10:38;;;;;;;8.18;1.82;;;;;;;13.26;61.06;100453.11;1674024;85;21436;-68
2023/11/07 09:13:10;;;;;;;4.60;1.75;;;;;;;13.27;60.61;100451.20;1671264;85;21068;-71
2023/11/07 09:15:39;;;;;;;8.00;2.70;;;;;;;13.26;61.03;100449.51;1669167;86;21466;-69
2023/11/07 09:18:10;;;;;;;6.80;2.50;;;;;;;13.28;61.09;100442.73;1667654;86;21475;-68
2023/11/07 09:20:43;;;;;;;8.15;3.52;;;;;;;13.32;60.96;100445.90;1670790;86;21186;-72
2023/11/07 09:23:13;;;;;;;7.33;3.08;;;;;;;13.37;61.59;100444.72;1670553;85;21542;-67
2023/11/07 09:25:42;;;;;;;7.12;2.45;;;;;;;13.42;61.56;100442.17;1667489;86;21187;-69
2023/11/07 09:28:11;;;;;;;5.40;2.27;;;;;;;13.47;61.46;100440.99;1667754;86;21103;-68
2023/11/07 09:30:39;;;;;;;6.83;2.33;;;;;;;13.52;61.39;100438.97;1667823;86;21067;-69
2023/11/07 09:33:09;;;;;;;7.58;2.50;;;;;;;13.54;61.05;100437.69;1667736;86;21015;-69
2023/11/07 09:35:39;;;;;;;4.97;2.12;;;;;;;13.55;60.94;100442.67;1667458;86;21063;-68
2023/11/07 09:38:08;;;;;;;4.17;1.92;;;;;;;13.57;60.79;100441.92;1667539;86;21043;-69
2023/11/07 09:40:40;;;;;;;9.10;2.70;;;;;;;13.57;60.88;100442.77;1668397;86;21334;-69
2023/11/07 09:43:09;;;;;;;4.83;1.98;;;;;;;13.59;60.18;100443.92;1652386;86;21088;-68
2023/11/07 09:45:38;;;;;;;6.20;2.58;;;;;;;13.59;59.89;100446.15;1674157;86;21475;-68
2023/11/07 09:48:09;;;;;;;7.92;2.70;;;;;;;13.58;59.66;100440.33;1670632;85;21083;-67
2023/11/07 09:50:41;;;;;;;6.37;2.12;;;;;;;13.59;59.29;100442.55;1640363;87;21064;-67
2023/11/07 09:53:11;;;;;;;5.67;1.90;;;;;;;13.58;59.03;100438.95;1641622;87;21101;-68
2023/11/07 09:55:41;;;;;;;7.17;2.52;;;;;;;13.59;58.99;100437.89;1642121;87;21479;-69
2023/11/07 09:58:16;;;;;;;5.08;2.20;;;;;;;13.60;59.27;100429.94;1641940;87;21113;-68
2023/11/07 10:00:48;;;;;;;7.15;2.17;;;;;;;13.60;59.05;100432.70;1640509;87;21062;-67
2023/11/07 10:03:17;;;;;;;8.40;2.20;;;;;;;13.61;59.04;100427.50;1641645;87;21035;-69
2023/11/07 10:05:47;;;;;;;7.17;2.42;;;;;;;13.63;58.82;100433.64;1641787;87;21083;-67
2023/11/07 10:08:16;;;;;;;5.45;1.95;;;;;;;13.63;58.83;100432.27;1641783;87;21108;-68
2023/11/07 10:11:09;;;;;;;6.83;2.40;;;;;;;13.67;58.87;100441.50;1642122;87;21063;-67
2023/11/07 10:13:39;;;;;;;5.50;2.10;;;;;;;13.68;58.74;100437.69;1641995;87;21604;-68
2023/11/07 10:16:09;;;;;;;10.43;3.37;;;;;;;13.70;58.21;100439.16;1645437;86;21122;-67
2023/11/07 10:18:47;;;;;;;7.50;2.52;;;;;;;13.72;57.91;100440.31;1646377;86;21040;-69
2023/11/07 10:21:30;;;;;;;6.40;2.58;;;;;;;13.73;57.37;100444.23;1583582;89;21561;-68
2023/11/07 10:24:03;;;;;;;9.55;2.60;;;;;;;13.74;57.12;100442.32;1582517;89;21094;-69
2023/11/07 10:26:38;;;;;;;8.50;2.50;;;;;;;13.76;56.85;100444.33;1582788;90;21055;-69
2023/11/07 10:29:15;;;;;;;5.80;2.33;;;;;;;13.76;56.32;100447.92;1582709;90;21115;-67
2023/11/07 10:31:46;;;;;;;6.58;2.40;;;;;;;13.79;56.00;100443.89;1582600;90;21095;-66
2023/11/07 10:34:19;;;;;;;6.00;2.00;;;;;;;13.81;56.13;100453.63;1563105;90;21134;-69
2023/11/07 10:36:53;;;;;;;4.72;1.50;;;;;;;13.83;54.74;100450.66;1578392;91;21130;-67
2023/11/07 10:39:26;;;;;;;8.93;2.50;;;;;;;13.85;54.40;100445.77;1612367;87;21132;-68
2023/11/07 10:41:55;;;;;;;4.17;1.80;;;;;;;13.89;54.83;100449.78;1646273;87;21080;-68
2023/11/07 10:44:31;;;;;;;3.35;1.60;;;;;;;13.90;55.03;100450.09;1646297;87;21099;-67
2023/11/07 10:46:57;;;;;;;3.80;1.65;;;;;;;13.91;54.82;100451.25;1645921;87;21504;-69
2023/11/07 10:49:26;;;;;;;6.72;2.40;;;;;;;13.95;54.33;100447.53;1646132;87;21549;-67
2023/11/07 10:51:55;;;;;;;4.83;1.80;;;;;;;13.98;54.38;100445.72;1641698;87;21083;-70
2023/11/07 10:54:30;;;;;;;3.33;1.60;;;;;;;13.99;54.59;100439.14;1674852;85;21227;-66
2023/11/07 10:56:55;;;;;;;4.03;1.65;;;;;;;13.99;54.48;100430.88;1674639;85;21491;-68
2023/11/07 10:59:25;;;;;;;5.50;1.60;;;;;;;14.01;54.77;100440.30;1675000;86;21582;-69
2023/11/07 11:01:54;;;;;;;4.03;1.42;;;;;;;14.03;54.53;100437.64;1621235;86;21589;-69
2023/11/07 11:04:23;;;;;;;3.90;1.70;;;;;;;14.06;54.07;100428.93;1674994;85;21544;-67
2023/11/07 11:06:57;;;;;;;4.42;1.80;;;;;;;14.07;54.47;100432.00;1641438;87;21124;-68
2023/11/07 11:09:27;;;;;;;6.40;1.95;;;;;;;14.08;54.81;100430.94;1674793;85;21080;-66
2023/11/07 11:12:00;;;;;;;6.00;1.90;;;;;;;14.09;53.59;100434.53;1641523;86;21466;-69
2023/11/07 11:14:30;;;;;;;5.20;1.70;;;;;;;14.11;53.54;100432.41;1676001;85;21101;-67
2023/11/07 11:17:08;;;;;;;7.72;2.15;;;;;;;14.13;52.89;100436.63;1681234;84;21062;-70
2023/11/07 11:19:42;;;;;;;5.00;1.60;;;;;;;14.15;52.42;100424.86;1681226;85;21888;-68
2023/11/07 11:22:35;;;;;;;4.42;1.95;;;;;;;14.17;52.89;100417.21;1681314;85;21122;-69
2023/11/07 11:25:38;;;;;;;9.03;4.55;;;;;;;14.18;53.39;100427.17;1681196;85;21086;-67
2023/11/07 11:28:07;;;;;;;5.85;1.80;;;;;;;14.20;52.62;100431.92;1681399;84;21042;-69
2023/11/07 11:30:40;;;;;;;4.60;1.35;;;;;;;14.21;53.13;100425.34;1681601;84;21488;-69
2023/11/07 11:33:11;;;;;;;5.90;1.90;;;;;;;14.22;52.99;100416.02;1681192;84;21110;-69
2023/11/07 11:35:44;;;;;;;5.03;1.62;;;;;;;14.27;52.81;100419.48;1681337;85;21038;-69
2023/11/07 11:38:15;;;;;;;5.85;1.82;;;;;;;14.28;52.38;100417.89;1680999;85;21065;-69
2023/11/07 11:40:59;;;;;;;6.72;1.87;;;;;;;14.32;52.61;100418.85;1681150;84;21951;-67
2023/11/07 11:43:35;;;;;;;6.67;2.22;;;;;;;14.34;52.60;100420.85;1681019;84;21066;-67